sensor_id;sensor_type;location;lat;lon;timestamp;temperature;humidity
75010;DHT22;63564;46.840;18.336;2022-12-05T00:02:51;4.64;93.46
75010;DHT22;63564;46.840;18.336;2022-12-05T00:05:52;4.55;94.32
75010;DHT22;63564;46.840;18.336;2022-12-05T00:08:52;4.57;94.31
75010;DHT22;63564;46.840;18.336;2022-12-05T00:11:53;4.39;95.13
75010;DHT22;63564;46.840;18.336;2022-12-05T00:14:53;4.49;94.83
75010;DHT22;63564;46.840;18.336;2022-12-05T00:17:53;4.31;95.49
75010;DHT22;63564;46.840;18.336;2022-12-05T00:20:54;4.32;95.29
75010;DHT22;63564;46.840;18.336;2022-12-05T00:23:55;4.42;94.97
75010;DHT22;63564;46.840;18.336;2022-12-05T00:26:56;4.45;95.23
75010;DHT22;63564;46.840;18.336;2022-12-05T00:29:56;4.49;94.76
75010;DHT22;63564;46.840;18.336;2022-12-05T00:32:57;4.43;94.67
75010;DHT22;63564;46.840;18.336;2022-12-05T00:36:05;4.42;94.77
75010;DHT22;63564;46.840;18.336;2022-12-05T00:39:09;4.35;95.00
75010;DHT22;63564;46.840;18.336;2022-12-05T00:42:10;4.42;94.69
75010;DHT22;63564;46.840;18.336;2022-12-05T00:45:10;4.48;94.77
75010;DHT22;63564;46.840;18.336;2022-12-05T00:48:11;4.49;94.38
75010;DHT22;63564;46.840;18.336;2022-12-05T00:51:17;4.50;94.72
75010;DHT22;63564;46.840;18.336;2022-12-05T00:54:18;4.55;94.24
75010;DHT22;63564;46.840;18.336;2022-12-05T00:57:18;4.56;94.31
75010;DHT22;63564;46.840;18.336;2022-12-05T01:00:19;4.49;94.44
75010;DHT22;63564;46.840;18.336;2022-12-05T01:03:19;4.29;95.20
75010;DHT22;63564;46.840;18.336;2022-12-05T01:06:20;4.31;95.45
75010;DHT22;63564;46.840;18.336;2022-12-05T01:09:21;4.34;95.46
75010;DHT22;63564;46.840;18.336;2022-12-05T01:12:22;4.41;94.97
75010;DHT22;63564;46.840;18.336;2022-12-05T01:15:22;4.42;95.17
75010;DHT22;63564;46.840;18.336;2022-12-05T01:18:23;4.45;94.95
75010;DHT22;63564;46.840;18.336;2022-12-05T01:21:24;4.36;95.20
75010;DHT22;63564;46.840;18.336;2022-12-05T01:24:25;4.41;95.18
75010;DHT22;63564;46.840;18.336;2022-12-05T01:27:26;4.36;95.25
75010;DHT22;63564;46.840;18.336;2022-12-05T01:30:26;4.39;95.35
75010;DHT22;63564;46.840;18.336;2022-12-05T01:33:27;4.32;95.83
75010;DHT22;63564;46.840;18.336;2022-12-05T01:36:28;4.49;95.02
75010;DHT22;63564;46.840;18.336;2022-12-05T01:39:29;4.46;94.96
75010;DHT22;63564;46.840;18.336;2022-12-05T01:42:29;4.49;95.53
75010;DHT22;63564;46.840;18.336;2022-12-05T01:45:38;4.49;94.91
75010;DHT22;63564;46.840;18.336;2022-12-05T01:48:39;4.63;94.45
75010;DHT22;63564;46.840;18.336;2022-12-05T01:51:41;4.57;94.87
75010;DHT22;63564;46.840;18.336;2022-12-05T01:54:43;4.34;95.76
75010;DHT22;63564;46.840;18.336;2022-12-05T01:57:46;4.36;95.81
75010;DHT22;63564;46.840;18.336;2022-12-05T02:00:47;4.48;95.04
75010;DHT22;63564;46.840;18.336;2022-12-05T02:03:49;4.29;95.80
75010;DHT22;63564;46.840;18.336;2022-12-05T02:06:50;4.48;95.14
75010;DHT22;63564;46.840;18.336;2022-12-05T02:09:51;4.66;94.50
75010;DHT22;63564;46.840;18.336;2022-12-05T02:12:51;4.50;94.53
75010;DHT22;63564;46.840;18.336;2022-12-05T02:23:24;4.38;95.86
75010;DHT22;63564;46.840;18.336;2022-12-05T02:30:13;4.34;95.97
75010;DHT22;63564;46.840;18.336;2022-12-05T02:33:23;4.38;95.91
75010;DHT22;63564;46.840;18.336;2022-12-05T02:36:39;4.46;95.42
75010;DHT22;63564;46.840;18.336;2022-12-05T02:43:01;4.50;95.34
75010;DHT22;63564;46.840;18.336;2022-12-05T02:46:08;4.55;95.07
75010;DHT22;63564;46.840;18.336;2022-12-05T02:49:13;4.62;94.90
75010;DHT22;63564;46.840;18.336;2022-12-05T02:52:16;4.43;96.06
75010;DHT22;63564;46.840;18.336;2022-12-05T02:55:17;4.57;95.08
75010;DHT22;63564;46.840;18.336;2022-12-05T02:58:30;4.53;94.82
75010;DHT22;63564;46.840;18.336;2022-12-05T03:01:32;4.57;94.88
75010;DHT22;63564;46.840;18.336;2022-12-05T03:04:33;4.50;95.04
75010;DHT22;63564;46.840;18.336;2022-12-05T03:07:35;4.50;95.24
75010;DHT22;63564;46.840;18.336;2022-12-05T03:10:38;4.57;94.97
75010;DHT22;63564;46.840;18.336;2022-12-05T03:13:48;4.56;94.98
75010;DHT22;63564;46.840;18.336;2022-12-05T03:16:53;4.60;95.08
75010;DHT22;63564;46.840;18.336;2022-12-05T03:20:01;4.55;94.85
75010;DHT22;63564;46.840;18.336;2022-12-05T03:23:13;4.41;95.72
75010;DHT22;63564;46.840;18.336;2022-12-05T03:29:44;4.39;96.15
75010;DHT22;63564;46.840;18.336;2022-12-05T03:33:02;4.31;96.31
75010;DHT22;63564;46.840;18.336;2022-12-05T03:39:35;4.35;96.00
75010;DHT22;63564;46.840;18.336;2022-12-05T03:42:41;4.45;95.71
75010;DHT22;63564;46.840;18.336;2022-12-05T03:52:30;4.49;95.67
75010;DHT22;63564;46.840;18.336;2022-12-05T03:55:34;4.48;95.54
75010;DHT22;63564;46.840;18.336;2022-12-05T03:58:53;4.39;96.13
75010;DHT22;63564;46.840;18.336;2022-12-05T04:01:56;4.46;95.90
75010;DHT22;63564;46.840;18.336;2022-12-05T04:05:05;4.41;96.05
75010;DHT22;63564;46.840;18.336;2022-12-05T04:08:30;4.34;96.43
75010;DHT22;63564;46.840;18.336;2022-12-05T04:11:34;4.34;96.53
75010;DHT22;63564;46.840;18.336;2022-12-05T04:14:40;4.22;96.94
75010;DHT22;63564;46.840;18.336;2022-12-05T04:20:52;4.26;97.16
75010;DHT22;63564;46.840;18.336;2022-12-05T04:24:24;4.19;97.11
75010;DHT22;63564;46.840;18.336;2022-12-05T04:31:23;4.22;96.78
75010;DHT22;63564;46.840;18.336;2022-12-05T04:34:25;4.31;96.72
75010;DHT22;63564;46.840;18.336;2022-12-05T04:37:30;4.34;96.71
75010;DHT22;63564;46.840;18.336;2022-12-05T04:40:37;4.35;96.62
75010;DHT22;63564;46.840;18.336;2022-12-05T04:43:40;4.32;96.83
75010;DHT22;63564;46.840;18.336;2022-12-05T04:46:42;4.38;96.86
75010;DHT22;63564;46.840;18.336;2022-12-05T04:49:44;4.32;97.05
75010;DHT22;63564;46.840;18.336;2022-12-05T04:52:47;4.26;97.07
75010;DHT22;63564;46.840;18.336;2022-12-05T04:55:51;4.26;97.67
75010;DHT22;63564;46.840;18.336;2022-12-05T04:58:53;4.28;97.52
75010;DHT22;63564;46.840;18.336;2022-12-05T05:01:56;4.42;97.36
75010;DHT22;63564;46.840;18.336;2022-12-05T05:05:00;4.39;96.97
75010;DHT22;63564;46.840;18.336;2022-12-05T05:08:02;4.39;97.31
75010;DHT22;63564;46.840;18.336;2022-12-05T05:11:24;4.29;97.80
75010;DHT22;63564;46.840;18.336;2022-12-05T05:14:25;4.46;97.40
75010;DHT22;63564;46.840;18.336;2022-12-05T05:17:25;4.48;96.88
75010;DHT22;63564;46.840;18.336;2022-12-05T05:20:25;4.57;96.90
75010;DHT22;63564;46.840;18.336;2022-12-05T05:23:26;4.57;96.63
75010;DHT22;63564;46.840;18.336;2022-12-05T05:26:28;4.49;96.82
75010;DHT22;63564;46.840;18.336;2022-12-05T05:29:28;4.22;98.01
75010;DHT22;63564;46.840;18.336;2022-12-05T05:32:31;4.24;98.41
75010;DHT22;63564;46.840;18.336;2022-12-05T05:35:35;4.18;98.28
75010;DHT22;63564;46.840;18.336;2022-12-05T05:38:40;4.25;98.39
75010;DHT22;63564;46.840;18.336;2022-12-05T05:41:41;4.25;98.24
75010;DHT22;63564;46.840;18.336;2022-12-05T05:44:42;4.32;97.87
75010;DHT22;63564;46.840;18.336;2022-12-05T05:47:42;4.41;97.58
75010;DHT22;63564;46.840;18.336;2022-12-05T05:50:43;4.39;98.05
75010;DHT22;63564;46.840;18.336;2022-12-05T05:53:43;4.28;98.32
75010;DHT22;63564;46.840;18.336;2022-12-05T05:56:43;4.36;98.09
75010;DHT22;63564;46.840;18.336;2022-12-05T05:59:45;4.29;98.48
75010;DHT22;63564;46.840;18.336;2022-12-05T06:02:45;4.31;98.39
75010;DHT22;63564;46.840;18.336;2022-12-05T06:05:56;4.26;98.88
75010;DHT22;63564;46.840;18.336;2022-12-05T06:08:56;4.39;98.60
75010;DHT22;63564;46.840;18.336;2022-12-05T06:11:57;4.49;98.12
75010;DHT22;63564;46.840;18.336;2022-12-05T06:14:57;4.45;98.41
75010;DHT22;63564;46.840;18.336;2022-12-05T06:17:58;4.39;98.71
75010;DHT22;63564;46.840;18.336;2022-12-05T06:20:58;4.49;98.41
75010;DHT22;63564;46.840;18.336;2022-12-05T06:23:58;4.56;98.52
75010;DHT22;63564;46.840;18.336;2022-12-05T06:26:59;4.53;98.58
75010;DHT22;63564;46.840;18.336;2022-12-05T06:29:59;4.63;98.30
75010;DHT22;63564;46.840;18.336;2022-12-05T06:33:00;4.60;98.05
75010;DHT22;63564;46.840;18.336;2022-12-05T06:36:08;4.60;97.99
75010;DHT22;63564;46.840;18.336;2022-12-05T06:39:09;4.77;97.42
75010;DHT22;63564;46.840;18.336;2022-12-05T06:42:09;4.95;96.51
75010;DHT22;63564;46.840;18.336;2022-12-05T06:45:10;4.74;97.46
75010;DHT22;63564;46.840;18.336;2022-12-05T06:48:10;4.63;97.88
75010;DHT22;63564;46.840;18.336;2022-12-05T06:51:13;4.70;97.82
75010;DHT22;63564;46.840;18.336;2022-12-05T06:54:14;4.66;97.74
75010;DHT22;63564;46.840;18.336;2022-12-05T06:57:14;5.01;96.56
75010;DHT22;63564;46.840;18.336;2022-12-05T07:00:15;4.94;95.98
75010;DHT22;63564;46.840;18.336;2022-12-05T07:03:34;4.83;96.60
75010;DHT22;63564;46.840;18.336;2022-12-05T07:06:34;4.77;97.44
75010;DHT22;63564;46.840;18.336;2022-12-05T07:09:35;4.84;97.65
75010;DHT22;63564;46.840;18.336;2022-12-05T07:12:50;4.97;97.37
75010;DHT22;63564;46.840;18.336;2022-12-05T07:15:51;5.01;96.08
75010;DHT22;63564;46.840;18.336;2022-12-05T07:18:51;5.02;95.46
75010;DHT22;63564;46.840;18.336;2022-12-05T07:21:52;5.10;96.25
75010;DHT22;63564;46.840;18.336;2022-12-05T07:24:52;5.34;94.77
75010;DHT22;63564;46.840;18.336;2022-12-05T07:27:54;5.40;94.01
75010;DHT22;63564;46.840;18.336;2022-12-05T07:31:05;5.36;94.28
75010;DHT22;63564;46.840;18.336;2022-12-05T07:34:05;5.20;94.92
75010;DHT22;63564;46.840;18.336;2022-12-05T07:37:06;5.05;95.88
75010;DHT22;63564;46.840;18.336;2022-12-05T07:40:07;5.15;95.49
75010;DHT22;63564;46.840;18.336;2022-12-05T07:43:08;5.02;96.11
75010;DHT22;63564;46.840;18.336;2022-12-05T07:46:09;5.22;95.59
75010;DHT22;63564;46.840;18.336;2022-12-05T07:49:12;5.27;94.96
75010;DHT22;63564;46.840;18.336;2022-12-05T07:52:14;5.46;94.99
75010;DHT22;63564;46.840;18.336;2022-12-05T07:55:15;5.42;95.39
75010;DHT22;63564;46.840;18.336;2022-12-05T07:58:15;5.49;94.61
75010;DHT22;63564;46.840;18.336;2022-12-05T08:01:21;6.42;99.99
75010;DHT22;63564;46.840;18.336;2022-12-05T08:04:22;5.97;99.99
75010;DHT22;63564;46.840;18.336;2022-12-05T08:07:22;5.70;94.27
75010;DHT22;63564;46.840;18.336;2022-12-05T08:10:22;5.42;94.94
75010;DHT22;63564;46.840;18.336;2022-12-05T08:13:23;5.62;96.58
75010;DHT22;63564;46.840;18.336;2022-12-05T08:16:26;5.39;94.86
75010;DHT22;63564;46.840;18.336;2022-12-05T08:19:27;5.79;98.77
75010;DHT22;63564;46.840;18.336;2022-12-05T08:22:27;5.42;94.73
75010;DHT22;63564;46.840;18.336;2022-12-05T08:25:28;6.00;95.97
75010;DHT22;63564;46.840;18.336;2022-12-05T08:28:28;6.11;93.25
75010;DHT22;63564;46.840;18.336;2022-12-05T08:31:31;6.35;96.16
75010;DHT22;63564;46.840;18.336;2022-12-05T08:34:32;6.44;96.97
75010;DHT22;63564;46.840;18.336;2022-12-05T08:37:32;6.06;93.74
75010;DHT22;63564;46.840;18.336;2022-12-05T08:40:32;6.55;96.24
75010;DHT22;63564;46.840;18.336;2022-12-05T08:43:33;6.48;91.57
75010;DHT22;63564;46.840;18.336;2022-12-05T08:46:35;5.66;93.75
75010;DHT22;63564;46.840;18.336;2022-12-05T08:49:36;6.72;94.67
75010;DHT22;63564;46.840;18.336;2022-12-05T08:52:36;5.70;93.34
75010;DHT22;63564;46.840;18.336;2022-12-05T08:55:37;5.69;93.57
75010;DHT22;63564;46.840;18.336;2022-12-05T08:58:38;6.20;93.01
75010;DHT22;63564;46.840;18.336;2022-12-05T09:01:38;6.17;92.05
75010;DHT22;63564;46.840;18.336;2022-12-05T09:04:39;5.97;92.81
75010;DHT22;63564;46.840;18.336;2022-12-05T09:07:39;5.91;93.17
75010;DHT22;63564;46.840;18.336;2022-12-05T09:10:40;5.90;92.67
75010;DHT22;63564;46.840;18.336;2022-12-05T09:13:41;5.71;93.93
75010;DHT22;63564;46.840;18.336;2022-12-05T09:16:43;5.97;93.23
75010;DHT22;63564;46.840;18.336;2022-12-05T09:19:44;6.01;92.19
75010;DHT22;63564;46.840;18.336;2022-12-05T09:22:44;5.89;93.42
75010;DHT22;63564;46.840;18.336;2022-12-05T09:25:52;5.90;93.10
75010;DHT22;63564;46.840;18.336;2022-12-05T09:28:53;5.97;92.50
75010;DHT22;63564;46.840;18.336;2022-12-05T09:31:53;6.00;93.64
75010;DHT22;63564;46.840;18.336;2022-12-05T09:34:54;6.11;92.79
75010;DHT22;63564;46.840;18.336;2022-12-05T09:37:55;6.10;92.78
75010;DHT22;63564;46.840;18.336;2022-12-05T09:50:48;6.68;91.18
75010;DHT22;63564;46.840;18.336;2022-12-05T09:53:49;6.83;89.55
75010;DHT22;63564;46.840;18.336;2022-12-05T09:56:50;6.87;90.75
75010;DHT22;63564;46.840;18.336;2022-12-05T09:59:52;6.48;91.10
75010;DHT22;63564;46.840;18.336;2022-12-05T10:03:04;6.24;91.99
75010;DHT22;63564;46.840;18.336;2022-12-05T10:06:17;6.62;91.27
75010;DHT22;63564;46.840;18.336;2022-12-05T10:16:12;6.53;91.09
75010;DHT22;63564;46.840;18.336;2022-12-05T10:19:24;6.75;90.46
75010;DHT22;63564;46.840;18.336;2022-12-05T10:25:45;6.73;90.80
75010;DHT22;63564;46.840;18.336;2022-12-05T10:32:25;7.01;89.56
75010;DHT22;63564;46.840;18.336;2022-12-05T10:35:36;7.03;89.71
75010;DHT22;63564;46.840;18.336;2022-12-05T10:38:36;7.15;92.06
75010;DHT22;63564;46.840;18.336;2022-12-05T10:41:38;6.97;89.43
75010;DHT22;63564;46.840;18.336;2022-12-05T10:44:38;7.62;93.18
75010;DHT22;63564;46.840;18.336;2022-12-05T10:47:39;7.39;88.77
75010;DHT22;63564;46.840;18.336;2022-12-05T10:50:41;7.30;91.29
75010;DHT22;63564;46.840;18.336;2022-12-05T10:53:45;7.44;90.09
75010;DHT22;63564;46.840;18.336;2022-12-05T10:56:50;7.56;91.79
75010;DHT22;63564;46.840;18.336;2022-12-05T10:59:51;7.45;87.74
75010;DHT22;63564;46.840;18.336;2022-12-05T11:02:52;7.48;88.33
75010;DHT22;63564;46.840;18.336;2022-12-05T11:05:55;7.36;90.58
75010;DHT22;63564;46.840;18.336;2022-12-05T11:09:19;7.08;89.51
75010;DHT22;63564;46.840;18.336;2022-12-05T11:12:22;7.35;89.24
75010;DHT22;63564;46.840;18.336;2022-12-05T11:15:27;7.30;88.28
75010;DHT22;63564;46.840;18.336;2022-12-05T11:18:31;7.39;90.13
75010;DHT22;63564;46.840;18.336;2022-12-05T11:21:41;7.62;89.86
75010;DHT22;63564;46.840;18.336;2022-12-05T11:24:42;7.47;88.50
75010;DHT22;63564;46.840;18.336;2022-12-05T11:27:42;7.18;89.18
75010;DHT22;63564;46.840;18.336;2022-12-05T11:34:15;7.54;88.79
75010;DHT22;63564;46.840;18.336;2022-12-05T11:37:23;7.69;88.56
75010;DHT22;63564;46.840;18.336;2022-12-05T11:40:32;7.85;87.78
75010;DHT22;63564;46.840;18.336;2022-12-05T11:43:55;8.11;88.67
75010;DHT22;63564;46.840;18.336;2022-12-05T12:04:11;8.01;87.00
75010;DHT22;63564;46.840;18.336;2022-12-05T12:11:08;8.14;86.67
75010;DHT22;63564;46.840;18.336;2022-12-05T12:14:25;8.49;87.41
75010;DHT22;63564;46.840;18.336;2022-12-05T12:28:11;8.24;87.14
75010;DHT22;63564;46.840;18.336;2022-12-05T12:31:45;8.25;86.65
75010;DHT22;63564;46.840;18.336;2022-12-05T12:35:12;8.59;85.71
75010;DHT22;63564;46.840;18.336;2022-12-05T12:48:17;8.37;88.34
75010;DHT22;63564;46.840;18.336;2022-12-05T12:51:22;8.07;86.65
75010;DHT22;63564;46.840;18.336;2022-12-05T13:07:16;8.33;86.40
75010;DHT22;63564;46.840;18.336;2022-12-05T13:10:43;8.25;86.33
75010;DHT22;63564;46.840;18.336;2022-12-05T13:13:55;8.35;86.54
75010;DHT22;63564;46.840;18.336;2022-12-05T13:16:57;7.93;87.92
75010;DHT22;63564;46.840;18.336;2022-12-05T13:19:59;8.13;86.86
75010;DHT22;63564;46.840;18.336;2022-12-05T13:23:01;8.51;85.87
75010;DHT22;63564;46.840;18.336;2022-12-05T13:26:07;8.66;85.76
75010;DHT22;63564;46.840;18.336;2022-12-05T13:29:21;8.40;85.62
75010;DHT22;63564;46.840;18.336;2022-12-05T13:32:42;8.41;86.23
75010;DHT22;63564;46.840;18.336;2022-12-05T13:35:42;8.56;85.21
75010;DHT22;63564;46.840;18.336;2022-12-05T13:39:12;8.54;85.89
75010;DHT22;63564;46.840;18.336;2022-12-05T13:42:36;8.44;86.21
75010;DHT22;63564;46.840;18.336;2022-12-05T13:45:38;8.40;86.92
75010;DHT22;63564;46.840;18.336;2022-12-05T13:48:41;8.18;87.17
75010;DHT22;63564;46.840;18.336;2022-12-05T13:51:43;8.18;87.35
75010;DHT22;63564;46.840;18.336;2022-12-05T13:54:50;8.27;88.86
75010;DHT22;63564;46.840;18.336;2022-12-05T13:57:58;8.87;86.59
75010;DHT22;63564;46.840;18.336;2022-12-05T14:04:47;9.21;86.71
75010;DHT22;63564;46.840;18.336;2022-12-05T14:13:53;9.30;83.64
75010;DHT22;63564;46.840;18.336;2022-12-05T14:16:54;8.75;85.28
75010;DHT22;63564;46.840;18.336;2022-12-05T14:26:56;7.96;89.61
75010;DHT22;63564;46.840;18.336;2022-12-05T14:30:28;7.98;88.72
75010;DHT22;63564;46.840;18.336;2022-12-05T14:33:30;8.17;89.38
75010;DHT22;63564;46.840;18.336;2022-12-05T14:36:31;7.87;89.05
75010;DHT22;63564;46.840;18.336;2022-12-05T14:42:41;7.75;90.54
75010;DHT22;63564;46.840;18.336;2022-12-05T14:48:52;7.54;90.88
75010;DHT22;63564;46.840;18.336;2022-12-05T14:51:56;7.47;91.22
75010;DHT22;63564;46.840;18.336;2022-12-05T14:55:01;7.32;91.81
75010;DHT22;63564;46.840;18.336;2022-12-05T14:58:02;7.20;92.58
75010;DHT22;63564;46.840;18.336;2022-12-05T15:01:12;7.17;93.15
75010;DHT22;63564;46.840;18.336;2022-12-05T15:04:23;7.22;92.51
75010;DHT22;63564;46.840;18.336;2022-12-05T15:07:37;7.08;92.86
75010;DHT22;63564;46.840;18.336;2022-12-05T15:10:38;6.79;93.84
75010;DHT22;63564;46.840;18.336;2022-12-05T15:13:39;6.73;94.22
75010;DHT22;63564;46.840;18.336;2022-12-05T15:16:42;6.65;94.54
75010;DHT22;63564;46.840;18.336;2022-12-05T15:19:54;6.73;94.24
75010;DHT22;63564;46.840;18.336;2022-12-05T15:22:56;6.66;94.45
75010;DHT22;63564;46.840;18.336;2022-12-05T15:25:56;6.66;94.92
75010;DHT22;63564;46.840;18.336;2022-12-05T15:29:46;6.71;94.73
75010;DHT22;63564;46.840;18.336;2022-12-05T15:32:27;6.72;94.62
75010;DHT22;63564;46.840;18.336;2022-12-05T15:35:31;6.61;94.70
75010;DHT22;63564;46.840;18.336;2022-12-05T15:38:34;6.72;94.72
75010;DHT22;63564;46.840;18.336;2022-12-05T15:41:36;6.80;94.59
75010;DHT22;63564;46.840;18.336;2022-12-05T15:44:36;6.62;94.61
75010;DHT22;63564;46.840;18.336;2022-12-05T15:47:37;6.52;95.28
75010;DHT22;63564;46.840;18.336;2022-12-05T15:50:42;6.39;95.71
75010;DHT22;63564;46.840;18.336;2022-12-05T15:57:06;6.46;95.53
75010;DHT22;63564;46.840;18.336;2022-12-05T16:00:16;6.57;95.67
75010;DHT22;63564;46.840;18.336;2022-12-05T16:03:23;6.72;95.13
75010;DHT22;63564;46.840;18.336;2022-12-05T16:09:31;6.93;95.11
75010;DHT22;63564;46.840;18.336;2022-12-05T16:12:37;6.86;94.79
75010;DHT22;63564;46.840;18.336;2022-12-05T16:15:42;6.86;94.65
75010;DHT22;63564;46.840;18.336;2022-12-05T16:18:53;6.73;94.60
75010;DHT22;63564;46.840;18.336;2022-12-05T16:25:21;6.55;95.53
75010;DHT22;63564;46.840;18.336;2022-12-05T16:28:22;6.57;95.87
75010;DHT22;63564;46.840;18.336;2022-12-05T16:31:22;6.72;95.24
75010;DHT22;63564;46.840;18.336;2022-12-05T16:34:23;6.79;95.26
75010;DHT22;63564;46.840;18.336;2022-12-05T16:37:27;6.91;95.39
75010;DHT22;63564;46.840;18.336;2022-12-05T16:40:27;6.77;94.42
75010;DHT22;63564;46.840;18.336;2022-12-05T16:46:40;6.84;94.45
75010;DHT22;63564;46.840;18.336;2022-12-05T16:49:41;6.93;94.06
75010;DHT22;63564;46.840;18.336;2022-12-05T16:52:43;6.90;94.25
75010;DHT22;63564;46.840;18.336;2022-12-05T16:55:44;6.75;94.60
75010;DHT22;63564;46.840;18.336;2022-12-05T16:58:44;6.66;95.44
75010;DHT22;63564;46.840;18.336;2022-12-05T17:01:45;6.82;94.63
75010;DHT22;63564;46.840;18.336;2022-12-05T17:04:45;6.97;93.86
75010;DHT22;63564;46.840;18.336;2022-12-05T17:07:46;6.91;94.00
75010;DHT22;63564;46.840;18.336;2022-12-05T17:10:46;6.77;94.68
75010;DHT22;63564;46.840;18.336;2022-12-05T17:13:48;6.79;94.76
75010;DHT22;63564;46.840;18.336;2022-12-05T17:16:48;6.76;94.72
75010;DHT22;63564;46.840;18.336;2022-12-05T17:19:49;6.83;94.51
75010;DHT22;63564;46.840;18.336;2022-12-05T17:22:49;6.76;94.86
75010;DHT22;63564;46.840;18.336;2022-12-05T17:25:54;6.71;95.24
75010;DHT22;63564;46.840;18.336;2022-12-05T17:28:55;6.75;95.25
75010;DHT22;63564;46.840;18.336;2022-12-05T17:31:55;6.72;95.01
75010;DHT22;63564;46.840;18.336;2022-12-05T17:34:56;6.79;95.03
75010;DHT22;63564;46.840;18.336;2022-12-05T17:37:56;6.71;95.11
75010;DHT22;63564;46.840;18.336;2022-12-05T17:40:56;6.63;95.57
75010;DHT22;63564;46.840;18.336;2022-12-05T17:43:57;6.53;96.08
75010;DHT22;63564;46.840;18.336;2022-12-05T17:46:57;6.49;96.29
75010;DHT22;63564;46.840;18.336;2022-12-05T17:49:57;6.35;96.83
75010;DHT22;63564;46.840;18.336;2022-12-05T17:52:58;6.46;96.72
75010;DHT22;63564;46.840;18.336;2022-12-05T17:55:58;6.31;96.89
75010;DHT22;63564;46.840;18.336;2022-12-05T17:58:58;6.26;97.17
75010;DHT22;63564;46.840;18.336;2022-12-05T18:01:59;6.39;96.80
75010;DHT22;63564;46.840;18.336;2022-12-05T18:04:59;6.62;95.95
75010;DHT22;63564;46.840;18.336;2022-12-05T18:07:59;6.57;95.89
75010;DHT22;63564;46.840;18.336;2022-12-05T18:11:00;6.42;96.29
75010;DHT22;63564;46.840;18.336;2022-12-05T18:14:00;6.44;96.98
75010;DHT22;63564;46.840;18.336;2022-12-05T18:17:02;6.53;96.03
75010;DHT22;63564;46.840;18.336;2022-12-05T18:20:03;6.49;95.97
75010;DHT22;63564;46.840;18.336;2022-12-05T18:23:04;6.59;95.77
75010;DHT22;63564;46.840;18.336;2022-12-05T18:26:06;6.55;95.86
75010;DHT22;63564;46.840;18.336;2022-12-05T18:29:06;6.63;95.37
75010;DHT22;63564;46.840;18.336;2022-12-05T18:32:06;6.59;95.92
75010;DHT22;63564;46.840;18.336;2022-12-05T18:35:07;6.61;95.21
75010;DHT22;63564;46.840;18.336;2022-12-05T18:38:09;6.52;95.57
75010;DHT22;63564;46.840;18.336;2022-12-05T18:41:09;6.42;95.81
75010;DHT22;63564;46.840;18.336;2022-12-05T18:44:10;6.39;96.02
75010;DHT22;63564;46.840;18.336;2022-12-05T18:47:10;6.29;96.11
75010;DHT22;63564;46.840;18.336;2022-12-05T18:50:10;6.26;96.20
75010;DHT22;63564;46.840;18.336;2022-12-05T18:53:11;6.36;96.59
75010;DHT22;63564;46.840;18.336;2022-12-05T18:56:11;6.25;96.38
75010;DHT22;63564;46.840;18.336;2022-12-05T18:59:16;6.17;96.61
75010;DHT22;63564;46.840;18.336;2022-12-05T19:02:17;6.24;96.38
75010;DHT22;63564;46.840;18.336;2022-12-05T19:05:17;6.28;96.11
75010;DHT22;63564;46.840;18.336;2022-12-05T19:08:17;6.28;96.07
75010;DHT22;63564;46.840;18.336;2022-12-05T19:11:18;6.32;96.25
75010;DHT22;63564;46.840;18.336;2022-12-05T19:14:19;6.42;95.80
75010;DHT22;63564;46.840;18.336;2022-12-05T19:17:20;6.39;95.71
75010;DHT22;63564;46.840;18.336;2022-12-05T19:20:21;6.38;95.73
75010;DHT22;63564;46.840;18.336;2022-12-05T19:23:23;6.38;95.64
75010;DHT22;63564;46.840;18.336;2022-12-05T19:26:24;6.44;95.20
75010;DHT22;63564;46.840;18.336;2022-12-05T19:29:25;6.38;95.76
75010;DHT22;63564;46.840;18.336;2022-12-05T19:32:25;6.31;96.34
75010;DHT22;63564;46.840;18.336;2022-12-05T19:35:25;6.31;96.49
75010;DHT22;63564;46.840;18.336;2022-12-05T19:38:29;6.49;95.22
75010;DHT22;63564;46.840;18.336;2022-12-05T19:41:30;6.35;95.60
75010;DHT22;63564;46.840;18.336;2022-12-05T19:44:30;6.22;96.54
75010;DHT22;63564;46.840;18.336;2022-12-05T19:47:30;6.14;97.00
75010;DHT22;63564;46.840;18.336;2022-12-05T19:50:31;6.26;97.04
75010;DHT22;63564;46.840;18.336;2022-12-05T19:53:37;6.29;96.69
75010;DHT22;63564;46.840;18.336;2022-12-05T19:56:37;6.15;97.20
75010;DHT22;63564;46.840;18.336;2022-12-05T19:59:38;6.28;97.21
75010;DHT22;63564;46.840;18.336;2022-12-05T20:02:38;6.11;97.09
75010;DHT22;63564;46.840;18.336;2022-12-05T20:05:39;6.06;97.32
75010;DHT22;63564;46.840;18.336;2022-12-05T20:08:39;6.24;96.91
75010;DHT22;63564;46.840;18.336;2022-12-05T20:11:41;6.24;96.90
75010;DHT22;63564;46.840;18.336;2022-12-05T20:14:42;6.21;97.32
75010;DHT22;63564;46.840;18.336;2022-12-05T20:17:42;6.22;96.89
75010;DHT22;63564;46.840;18.336;2022-12-05T20:20:42;6.22;96.66
75010;DHT22;63564;46.840;18.336;2022-12-05T20:23:43;6.25;96.67
75010;DHT22;63564;46.840;18.336;2022-12-05T20:26:43;6.32;96.43
75010;DHT22;63564;46.840;18.336;2022-12-05T20:29:44;6.15;97.13
75010;DHT22;63564;46.840;18.336;2022-12-05T20:32:44;6.10;97.09
75010;DHT22;63564;46.840;18.336;2022-12-05T20:35:45;6.17;97.10
75010;DHT22;63564;46.840;18.336;2022-12-05T20:38:46;6.29;96.92
75010;DHT22;63564;46.840;18.336;2022-12-05T20:41:48;6.15;97.05
75010;DHT22;63564;46.840;18.336;2022-12-05T20:44:48;6.03;97.39
75010;DHT22;63564;46.840;18.336;2022-12-05T20:47:49;6.08;97.58
75010;DHT22;63564;46.840;18.336;2022-12-05T20:50:53;6.32;96.82
75010;DHT22;63564;46.840;18.336;2022-12-05T20:53:55;6.29;96.42
75010;DHT22;63564;46.840;18.336;2022-12-05T20:56:56;6.14;97.00
75010;DHT22;63564;46.840;18.336;2022-12-05T20:59:57;6.32;96.90
75010;DHT22;63564;46.840;18.336;2022-12-05T21:02:57;6.29;96.38
75010;DHT22;63564;46.840;18.336;2022-12-05T21:05:58;6.29;96.73
75010;DHT22;63564;46.840;18.336;2022-12-05T21:08:59;6.53;95.58
75010;DHT22;63564;46.840;18.336;2022-12-05T21:11:59;6.39;96.32
75010;DHT22;63564;46.840;18.336;2022-12-05T21:14:59;6.25;97.04
75010;DHT22;63564;46.840;18.336;2022-12-05T21:18:00;6.15;97.74
75010;DHT22;63564;46.840;18.336;2022-12-05T21:21:03;6.26;97.37
75010;DHT22;63564;46.840;18.336;2022-12-05T21:24:05;6.36;97.17
75010;DHT22;63564;46.840;18.336;2022-12-05T21:27:05;6.35;96.85
75010;DHT22;63564;46.840;18.336;2022-12-05T21:30:06;6.28;96.97
75010;DHT22;63564;46.840;18.336;2022-12-05T21:33:07;6.20;97.51
75010;DHT22;63564;46.840;18.336;2022-12-05T21:36:09;6.15;97.35
75010;DHT22;63564;46.840;18.336;2022-12-05T21:39:09;5.97;98.24
75010;DHT22;63564;46.840;18.336;2022-12-05T21:42:11;6.01;98.42
75010;DHT22;63564;46.840;18.336;2022-12-05T21:45:11;6.20;97.78
75010;DHT22;63564;46.840;18.336;2022-12-05T21:48:11;6.18;97.41
75010;DHT22;63564;46.840;18.336;2022-12-05T21:51:12;6.17;97.59